sensor_id;sensor_type;location;lat;lon;timestamp;P1;durP1;ratioP1;P2;durP2;ratioP2
63807;SDS011;49961;43.970;22.868;2022-10-31T00:00:51;8.70;;;4.67;;
63807;SDS011;49961;43.970;22.868;2022-10-31T00:01:52;10.23;;;5.20;;
63807;SDS011;49961;43.970;22.868;2022-10-31T00:02:52;9.67;;;4.53;;
63807;SDS011;49961;43.970;22.868;2022-10-31T00:03:53;10.47;;;5.00;;
63807;SDS011;49961;43.970;22.868;2022-10-31T00:04:53;9.93;;;4.77;;
63807;SDS011;49961;43.970;22.868;2022-10-31T00:05:54;9.50;;;5.13;;
63807;SDS011;49961;43.970;22.868;2022-10-31T00:06:54;9.33;;;4.47;;
63807;SDS011;49961;43.970;22.868;2022-10-31T00:07:54;8.40;;;4.67;;
63807;SDS011;49961;43.970;22.868;2022-10-31T00:08:56;7.73;;;4.67;;
63807;SDS011;49961;43.970;22.868;2022-10-31T00:09:57;8.63;;;4.47;;
63807;SDS011;49961;43.970;22.868;2022-10-31T00:10:58;9.03;;;5.07;;
63807;SDS011;49961;43.970;22.868;2022-10-31T00:11:58;9.73;;;4.70;;
63807;SDS011;49961;43.970;22.868;2022-10-31T00:12:59;8.80;;;4.77;;
63807;SDS011;49961;43.970;22.868;2022-10-31T00:13:59;10.00;;;4.73;;
63807;SDS011;49961;43.970;22.868;2022-10-31T00:15:00;10.73;;;5.33;;
63807;SDS011;49961;43.970;22.868;2022-10-31T00:16:00;8.77;;;4.80;;
63807;SDS011;49961;43.970;22.868;2022-10-31T00:17:01;9.47;;;4.73;;
63807;SDS011;49961;43.970;22.868;2022-10-31T00:18:02;8.40;;;4.57;;
63807;SDS011;49961;43.970;22.868;2022-10-31T00:19:05;9.90;;;4.73;;
63807;SDS011;49961;43.970;22.868;2022-10-31T00:20:07;7.77;;;4.57;;
63807;SDS011;49961;43.970;22.868;2022-10-31T00:21:08;9.43;;;5.03;;
63807;SDS011;49961;43.970;22.868;2022-10-31T00:22:09;7.13;;;4.53;;
63807;SDS011;49961;43.970;22.868;2022-10-31T00:23:10;7.27;;;4.80;;
63807;SDS011;49961;43.970;22.868;2022-10-31T00:24:11;8.07;;;5.13;;
63807;SDS011;49961;43.970;22.868;2022-10-31T00:25:11;8.63;;;5.10;;
63807;SDS011;49961;43.970;22.868;2022-10-31T00:26:12;8.70;;;4.57;;
63807;SDS011;49961;43.970;22.868;2022-10-31T00:27:12;9.03;;;4.70;;
63807;SDS011;49961;43.970;22.868;2022-10-31T00:28:12;12.10;;;5.43;;
63807;SDS011;49961;43.970;22.868;2022-10-31T00:29:13;10.47;;;4.73;;
63807;SDS011;49961;43.970;22.868;2022-10-31T00:30:13;9.50;;;4.53;;
63807;SDS011;49961;43.970;22.868;2022-10-31T00:31:14;7.87;;;4.70;;
63807;SDS011;49961;43.970;22.868;2022-10-31T00:32:14;9.53;;;5.30;;
63807;SDS011;49961;43.970;22.868;2022-10-31T00:33:15;6.77;;;4.87;;
63807;SDS011;49961;43.970;22.868;2022-10-31T00:34:15;11.83;;;4.60;;
63807;SDS011;49961;43.970;22.868;2022-10-31T00:35:16;9.40;;;5.30;;
63807;SDS011;49961;43.970;22.868;2022-10-31T00:36:17;7.97;;;5.00;;
63807;SDS011;49961;43.970;22.868;2022-10-31T00:37:18;8.17;;;4.63;;
63807;SDS011;49961;43.970;22.868;2022-10-31T00:38:19;9.30;;;4.93;;
63807;SDS011;49961;43.970;22.868;2022-10-31T00:39:19;8.17;;;5.00;;
63807;SDS011;49961;43.970;22.868;2022-10-31T00:40:20;10.67;;;5.30;;
63807;SDS011;49961;43.970;22.868;2022-10-31T00:41:20;10.70;;;5.23;;
63807;SDS011;49961;43.970;22.868;2022-10-31T00:42:21;8.70;;;5.10;;
63807;SDS011;49961;43.970;22.868;2022-10-31T00:43:21;9.77;;;4.83;;
63807;SDS011;49961;43.970;22.868;2022-10-31T00:44:22;14.03;;;5.87;;
63807;SDS011;49961;43.970;22.868;2022-10-31T00:45:22;9.17;;;4.97;;
63807;SDS011;49961;43.970;22.868;2022-10-31T00:46:23;11.47;;;5.27;;
63807;SDS011;49961;43.970;22.868;2022-10-31T00:47:23;9.83;;;5.20;;
63807;SDS011;49961;43.970;22.868;2022-10-31T00:48:23;8.50;;;5.40;;
63807;SDS011;49961;43.970;22.868;2022-10-31T00:49:24;7.80;;;5.00;;
63807;SDS011;49961;43.970;22.868;2022-10-31T00:50:25;8.13;;;5.00;;
63807;SDS011;49961;43.970;22.868;2022-10-31T00:51:25;8.57;;;5.37;;
63807;SDS011;49961;43.970;22.868;2022-10-31T00:52:26;8.93;;;5.10;;
63807;SDS011;49961;43.970;22.868;2022-10-31T00:53:26;11.80;;;5.73;;
63807;SDS011;49961;43.970;22.868;2022-10-31T00:54:27;8.83;;;5.30;;
63807;SDS011;49961;43.970;22.868;2022-10-31T00:55:27;9.27;;;5.50;;
63807;SDS011;49961;43.970;22.868;2022-10-31T00:56:28;8.33;;;5.00;;
63807;SDS011;49961;43.970;22.868;2022-10-31T00:57:28;8.93;;;5.23;;
63807;SDS011;49961;43.970;22.868;2022-10-31T00:58:29;8.87;;;5.23;;
63807;SDS011;49961;43.970;22.868;2022-10-31T00:59:29;13.23;;;5.67;;
63807;SDS011;49961;43.970;22.868;2022-10-31T01:00:30;6.00;;;4.50;;
63807;SDS011;49961;43.970;22.868;2022-10-31T01:01:30;8.60;;;5.80;;
63807;SDS011;49961;43.970;22.868;2022-10-31T01:02:31;10.23;;;5.07;;
63807;SDS011;49961;43.970;22.868;2022-10-31T01:03:32;10.70;;;5.77;;
63807;SDS011;49961;43.970;22.868;2022-10-31T01:04:33;10.70;;;5.57;;
63807;SDS011;49961;43.970;22.868;2022-10-31T01:05:34;10.03;;;5.10;;
63807;SDS011;49961;43.970;22.868;2022-10-31T01:06:34;8.50;;;5.73;;
63807;SDS011;49961;43.970;22.868;2022-10-31T01:07:35;11.00;;;5.93;;
63807;SDS011;49961;43.970;22.868;2022-10-31T01:08:37;10.73;;;5.53;;
63807;SDS011;49961;43.970;22.868;2022-10-31T01:09:38;8.73;;;5.27;;
63807;SDS011;49961;43.970;22.868;2022-10-31T01:10:38;13.87;;;6.37;;
63807;SDS011;49961;43.970;22.868;2022-10-31T01:11:39;8.87;;;6.10;;
63807;SDS011;49961;43.970;22.868;2022-10-31T01:12:40;11.13;;;6.00;;
63807;SDS011;49961;43.970;22.868;2022-10-31T01:13:43;10.37;;;6.00;;
63807;SDS011;49961;43.970;22.868;2022-10-31T01:14:44;9.17;;;5.40;;
63807;SDS011;49961;43.970;22.868;2022-10-31T01:15:45;12.93;;;6.27;;
63807;SDS011;49961;43.970;22.868;2022-10-31T01:16:53;10.43;;;5.83;;
63807;SDS011;49961;43.970;22.868;2022-10-31T01:17:53;8.40;;;5.60;;
63807;SDS011;49961;43.970;22.868;2022-10-31T01:18:54;10.17;;;5.53;;
63807;SDS011;49961;43.970;22.868;2022-10-31T01:19:54;10.10;;;5.63;;
63807;SDS011;49961;43.970;22.868;2022-10-31T01:20:58;10.90;;;6.20;;
63807;SDS011;49961;43.970;22.868;2022-10-31T01:22:06;8.13;;;5.83;;
63807;SDS011;49961;43.970;22.868;2022-10-31T01:23:07;12.03;;;6.20;;
63807;SDS011;49961;43.970;22.868;2022-10-31T01:24:07;10.63;;;5.50;;
63807;SDS011;49961;43.970;22.868;2022-10-31T01:25:08;10.03;;;6.13;;
63807;SDS011;49961;43.970;22.868;2022-10-31T01:26:11;15.77;;;6.40;;
63807;SDS011;49961;43.970;22.868;2022-10-31T01:27:13;11.93;;;6.20;;
63807;SDS011;49961;43.970;22.868;2022-10-31T01:28:13;14.57;;;6.10;;
63807;SDS011;49961;43.970;22.868;2022-10-31T01:29:14;12.90;;;6.23;;
63807;SDS011;49961;43.970;22.868;2022-10-31T01:30:14;15.20;;;5.83;;
63807;SDS011;49961;43.970;22.868;2022-10-31T01:31:15;17.13;;;6.67;;
63807;SDS011;49961;43.970;22.868;2022-10-31T01:32:17;23.23;;;6.50;;
63807;SDS011;49961;43.970;22.868;2022-10-31T01:33:18;17.10;;;6.40;;
63807;SDS011;49961;43.970;22.868;2022-10-31T01:34:18;12.60;;;6.00;;
63807;SDS011;49961;43.970;22.868;2022-10-31T01:35:18;11.43;;;6.10;;
63807;SDS011;49961;43.970;22.868;2022-10-31T01:36:20;10.97;;;6.40;;
63807;SDS011;49961;43.970;22.868;2022-10-31T01:37:22;10.53;;;5.73;;
63807;SDS011;49961;43.970;22.868;2022-10-31T01:38:23;11.43;;;6.00;;
63807;SDS011;49961;43.970;22.868;2022-10-31T01:39:24;11.93;;;6.13;;
63807;SDS011;49961;43.970;22.868;2022-10-31T01:40:28;19.03;;;7.20;;
63807;SDS011;49961;43.970;22.868;2022-10-31T01:41:30;16.87;;;6.17;;
63807;SDS011;49961;43.970;22.868;2022-10-31T01:42:32;11.97;;;6.17;;
63807;SDS011;49961;43.970;22.868;2022-10-31T01:45:22;13.30;;;5.80;;
63807;SDS011;49961;43.970;22.868;2022-10-31T01:47:34;10.13;;;6.13;;
63807;SDS011;49961;43.970;22.868;2022-10-31T01:48:39;11.33;;;6.03;;
63807;SDS011;49961;43.970;22.868;2022-10-31T01:49:51;15.73;;;6.03;;
63807;SDS011;49961;43.970;22.868;2022-10-31T01:50:54;10.40;;;5.53;;
63807;SDS011;49961;43.970;22.868;2022-10-31T01:52:00;9.37;;;6.40;;
63807;SDS011;49961;43.970;22.868;2022-10-31T01:53:09;8.37;;;6.40;;
63807;SDS011;49961;43.970;22.868;2022-10-31T01:54:12;11.97;;;6.13;;
63807;SDS011;49961;43.970;22.868;2022-10-31T01:55:17;8.77;;;6.10;;
63807;SDS011;49961;43.970;22.868;2022-10-31T01:56:20;9.23;;;5.83;;
63807;SDS011;49961;43.970;22.868;2022-10-31T01:57:22;11.40;;;6.20;;
63807;SDS011;49961;43.970;22.868;2022-10-31T01:58:24;8.53;;;5.50;;
63807;SDS011;49961;43.970;22.868;2022-10-31T01:59:27;9.97;;;5.80;;
63807;SDS011;49961;43.970;22.868;2022-10-31T02:00:32;10.00;;;5.80;;
63807;SDS011;49961;43.970;22.868;2022-10-31T02:01:33;11.27;;;5.80;;
63807;SDS011;49961;43.970;22.868;2022-10-31T02:02:33;8.50;;;6.03;;
63807;SDS011;49961;43.970;22.868;2022-10-31T02:03:34;10.70;;;6.30;;
63807;SDS011;49961;43.970;22.868;2022-10-31T02:04:35;9.60;;;5.70;;
63807;SDS011;49961;43.970;22.868;2022-10-31T02:05:36;10.07;;;6.40;;
63807;SDS011;49961;43.970;22.868;2022-10-31T02:08:01;9.70;;;5.67;;
63807;SDS011;49961;43.970;22.868;2022-10-31T02:09:03;10.67;;;5.90;;
63807;SDS011;49961;43.970;22.868;2022-10-31T02:10:05;9.17;;;5.97;;
63807;SDS011;49961;43.970;22.868;2022-10-31T02:11:05;10.23;;;6.43;;
63807;SDS011;49961;43.970;22.868;2022-10-31T02:12:08;9.43;;;5.63;;
63807;SDS011;49961;43.970;22.868;2022-10-31T02:13:10;11.47;;;6.50;;
63807;SDS011;49961;43.970;22.868;2022-10-31T02:14:12;9.53;;;6.30;;
63807;SDS011;49961;43.970;22.868;2022-10-31T02:15:13;11.00;;;5.80;;
63807;SDS011;49961;43.970;22.868;2022-10-31T02:16:13;10.60;;;5.77;;
63807;SDS011;49961;43.970;22.868;2022-10-31T02:17:14;9.63;;;6.47;;
63807;SDS011;49961;43.970;22.868;2022-10-31T02:18:15;13.53;;;6.37;;
63807;SDS011;49961;43.970;22.868;2022-10-31T02:19:22;11.03;;;6.20;;
63807;SDS011;49961;43.970;22.868;2022-10-31T02:20:48;13.10;;;6.70;;
63807;SDS011;49961;43.970;22.868;2022-10-31T02:22:37;12.50;;;6.80;;
63807;SDS011;49961;43.970;22.868;2022-10-31T02:24:58;14.43;;;6.97;;
63807;SDS011;49961;43.970;22.868;2022-10-31T02:27:44;11.53;;;5.90;;
63807;SDS011;49961;43.970;22.868;2022-10-31T02:30:22;6.47;;;3.40;;
63807;SDS011;49961;43.970;22.868;2022-10-31T02:34:54;15.83;;;7.00;;
63807;SDS011;49961;43.970;22.868;2022-10-31T02:37:43;17.07;;;7.27;;
63807;SDS011;49961;43.970;22.868;2022-10-31T02:38:55;15.53;;;6.70;;
63807;SDS011;49961;43.970;22.868;2022-10-31T02:41:15;23.63;;;7.37;;
63807;SDS011;49961;43.970;22.868;2022-10-31T02:45:48;13.70;;;6.87;;
63807;SDS011;49961;43.970;22.868;2022-10-31T02:46:58;14.37;;;7.13;;
63807;SDS011;49961;43.970;22.868;2022-10-31T02:48:06;15.53;;;6.73;;
63807;SDS011;49961;43.970;22.868;2022-10-31T02:49:12;15.87;;;7.07;;
63807;SDS011;49961;43.970;22.868;2022-10-31T02:50:23;16.87;;;7.20;;
63807;SDS011;49961;43.970;22.868;2022-10-31T02:51:28;16.13;;;6.50;;
63807;SDS011;49961;43.970;22.868;2022-10-31T02:52:30;14.73;;;7.07;;
63807;SDS011;49961;43.970;22.868;2022-10-31T02:53:32;13.37;;;7.63;;
63807;SDS011;49961;43.970;22.868;2022-10-31T02:54:34;16.87;;;7.47;;
63807;SDS011;49961;43.970;22.868;2022-10-31T02:56:34;20.47;;;7.80;;
63807;SDS011;49961;43.970;22.868;2022-10-31T02:57:35;14.00;;;7.67;;
63807;SDS011;49961;43.970;22.868;2022-10-31T02:58:40;15.37;;;8.13;;
63807;SDS011;49961;43.970;22.868;2022-10-31T02:59:48;17.20;;;8.20;;
63807;SDS011;49961;43.970;22.868;2022-10-31T03:07:57;12.77;;;7.27;;
63807;SDS011;49961;43.970;22.868;2022-10-31T03:09:08;11.70;;;7.23;;
63807;SDS011;49961;43.970;22.868;2022-10-31T03:16:12;11.70;;;6.63;;
63807;SDS011;49961;43.970;22.868;2022-10-31T03:17:22;15.63;;;7.63;;
63807;SDS011;49961;43.970;22.868;2022-10-31T03:18:40;21.87;;;7.73;;
63807;SDS011;49961;43.970;22.868;2022-10-31T03:19:52;17.37;;;8.03;;
63807;SDS011;49961;43.970;22.868;2022-10-31T03:21:06;20.77;;;7.80;;
63807;SDS011;49961;43.970;22.868;2022-10-31T03:22:15;16.90;;;7.20;;
63807;SDS011;49961;43.970;22.868;2022-10-31T03:23:19;19.90;;;8.30;;
63807;SDS011;49961;43.970;22.868;2022-10-31T03:24:24;15.90;;;7.20;;
63807;SDS011;49961;43.970;22.868;2022-10-31T03:25:27;13.00;;;7.13;;
63807;SDS011;49961;43.970;22.868;2022-10-31T03:26:30;14.30;;;7.77;;
63807;SDS011;49961;43.970;22.868;2022-10-31T03:27:32;12.20;;;7.63;;
63807;SDS011;49961;43.970;22.868;2022-10-31T03:28:37;17.57;;;9.07;;
63807;SDS011;49961;43.970;22.868;2022-10-31T03:29:43;11.80;;;7.70;;
63807;SDS011;49961;43.970;22.868;2022-10-31T03:30:45;14.63;;;7.97;;
63807;SDS011;49961;43.970;22.868;2022-10-31T03:31:53;16.30;;;7.67;;
63807;SDS011;49961;43.970;22.868;2022-10-31T03:33:00;15.17;;;8.40;;
63807;SDS011;49961;43.970;22.868;2022-10-31T03:34:04;13.97;;;8.03;;
63807;SDS011;49961;43.970;22.868;2022-10-31T03:35:08;13.10;;;6.63;;
63807;SDS011;49961;43.970;22.868;2022-10-31T03:36:10;14.00;;;7.30;;
63807;SDS011;49961;43.970;22.868;2022-10-31T03:37:14;12.93;;;6.90;;
63807;SDS011;49961;43.970;22.868;2022-10-31T03:38:19;15.23;;;7.70;;
63807;SDS011;49961;43.970;22.868;2022-10-31T03:39:21;14.10;;;7.33;;
63807;SDS011;49961;43.970;22.868;2022-10-31T03:40:23;10.90;;;6.77;;
63807;SDS011;49961;43.970;22.868;2022-10-31T03:41:27;15.07;;;7.17;;
63807;SDS011;49961;43.970;22.868;2022-10-31T03:42:32;16.33;;;7.47;;
63807;SDS011;49961;43.970;22.868;2022-10-31T03:43:36;15.03;;;7.00;;
63807;SDS011;49961;43.970;22.868;2022-10-31T03:44:42;17.37;;;7.20;;
63807;SDS011;49961;43.970;22.868;2022-10-31T03:45:48;14.57;;;6.67;;
63807;SDS011;49961;43.970;22.868;2022-10-31T03:46:49;11.63;;;6.60;;
63807;SDS011;49961;43.970;22.868;2022-10-31T03:47:50;11.33;;;6.67;;
63807;SDS011;49961;43.970;22.868;2022-10-31T03:48:53;13.13;;;6.23;;
63807;SDS011;49961;43.970;22.868;2022-10-31T03:49:54;12.37;;;6.80;;
63807;SDS011;49961;43.970;22.868;2022-10-31T03:51:05;14.77;;;7.43;;
63807;SDS011;49961;43.970;22.868;2022-10-31T03:53:41;14.53;;;6.23;;
63807;SDS011;49961;43.970;22.868;2022-10-31T03:54:46;10.43;;;5.93;;
63807;SDS011;49961;43.970;22.868;2022-10-31T03:55:52;11.70;;;6.30;;
63807;SDS011;49961;43.970;22.868;2022-10-31T03:57:05;13.80;;;6.70;;
63807;SDS011;49961;43.970;22.868;2022-10-31T03:59:25;12.77;;;6.30;;
63807;SDS011;49961;43.970;22.868;2022-10-31T04:00:30;9.60;;;6.03;;
63807;SDS011;49961;43.970;22.868;2022-10-31T04:01:34;12.20;;;6.37;;
63807;SDS011;49961;43.970;22.868;2022-10-31T04:02:41;10.43;;;5.37;;
63807;SDS011;49961;43.970;22.868;2022-10-31T04:03:45;10.80;;;6.33;;
63807;SDS011;49961;43.970;22.868;2022-10-31T04:04:46;13.63;;;6.50;;
63807;SDS011;49961;43.970;22.868;2022-10-31T04:05:49;22.20;;;7.00;;
63807;SDS011;49961;43.970;22.868;2022-10-31T04:06:52;14.33;;;6.70;;
63807;SDS011;49961;43.970;22.868;2022-10-31T04:07:56;13.37;;;6.87;;
63807;SDS011;49961;43.970;22.868;2022-10-31T04:08:59;11.93;;;6.50;;
63807;SDS011;49961;43.970;22.868;2022-10-31T04:10:03;14.60;;;5.87;;
63807;SDS011;49961;43.970;22.868;2022-10-31T04:11:08;13.07;;;6.07;;
63807;SDS011;49961;43.970;22.868;2022-10-31T04:12:12;18.43;;;7.17;;
63807;SDS011;49961;43.970;22.868;2022-10-31T04:13:17;12.57;;;6.30;;
63807;SDS011;49961;43.970;22.868;2022-10-31T04:14:23;21.40;;;7.80;;
63807;SDS011;49961;43.970;22.868;2022-10-31T04:15:26;17.13;;;6.20;;
63807;SDS011;49961;43.970;22.868;2022-10-31T04:16:31;21.20;;;7.10;;
63807;SDS011;49961;43.970;22.868;2022-10-31T04:17:33;23.70;;;8.07;;
63807;SDS011;49961;43.970;22.868;2022-10-31T04:18:37;22.73;;;7.07;;
63807;SDS011;49961;43.970;22.868;2022-10-31T04:19:38;16.80;;;5.40;;
63807;SDS011;49961;43.970;22.868;2022-10-31T04:20:39;24.33;;;7.47;;
63807;SDS011;49961;43.970;22.868;2022-10-31T04:21:41;22.20;;;7.97;;
63807;SDS011;49961;43.970;22.868;2022-10-31T04:22:44;16.53;;;7.30;;
63807;SDS011;49961;43.970;22.868;2022-10-31T04:23:45;30.63;;;8.37;;
63807;SDS011;49961;43.970;22.868;2022-10-31T04:24:45;14.80;;;6.27;;
63807;SDS011;49961;43.970;22.868;2022-10-31T04:25:45;20.13;;;6.87;;
63807;SDS011;49961;43.970;22.868;2022-10-31T04:26:46;16.00;;;7.20;;
63807;SDS011;49961;43.970;22.868;2022-10-31T04:27:46;18.30;;;6.90;;
63807;SDS011;49961;43.970;22.868;2022-10-31T04:28:47;24.97;;;8.13;;
63807;SDS011;49961;43.970;22.868;2022-10-31T04:29:47;15.60;;;6.40;;
63807;SDS011;49961;43.970;22.868;2022-10-31T04:30:48;16.07;;;6.17;;
63807;SDS011;49961;43.970;22.868;2022-10-31T04:31:48;26.40;;;7.90;;
63807;SDS011;49961;43.970;22.868;2022-10-31T04:32:49;14.03;;;6.43;;
63807;SDS011;49961;43.970;22.868;2022-10-31T04:33:49;15.20;;;6.07;;
63807;SDS011;49961;43.970;22.868;2022-10-31T04:34:49;16.33;;;6.80;;
63807;SDS011;49961;43.970;22.868;2022-10-31T04:35:50;23.27;;;7.57;;
63807;SDS011;49961;43.970;22.868;2022-10-31T04:36:50;17.63;;;6.87;;
63807;SDS011;49961;43.970;22.868;2022-10-31T04:37:51;19.17;;;6.53;;
63807;SDS011;49961;43.970;22.868;2022-10-31T04:38:51;14.67;;;6.27;;
63807;SDS011;49961;43.970;22.868;2022-10-31T04:39:52;15.77;;;5.83;;
63807;SDS011;49961;43.970;22.868;2022-10-31T04:40:52;12.93;;;5.77;;
63807;SDS011;49961;43.970;22.868;2022-10-31T04:41:53;10.87;;;5.90;;
63807;SDS011;49961;43.970;22.868;2022-10-31T04:42:53;14.13;;;5.97;;
63807;SDS011;49961;43.970;22.868;2022-10-31T04:43:53;22.83;;;7.90;;
63807;SDS011;49961;43.970;22.868;2022-10-31T04:44:54;12.03;;;6.10;;
63807;SDS011;49961;43.970;22.868;2022-10-31T04:45:54;9.17;;;4.90;;
63807;SDS011;49961;43.970;22.868;2022-10-31T04:46:55;15.53;;;6.17;;
63807;SDS011;49961;43.970;22.868;2022-10-31T04:47:55;14.40;;;6.93;;
63807;SDS011;49961;43.970;22.868;2022-10-31T04:48:56;20.60;;;7.37;;
63807;SDS011;49961;43.970;22.868;2022-10-31T04:49:56;16.97;;;7.17;;
63807;SDS011;49961;43.970;22.868;2022-10-31T04:51:00;16.93;;;7.57;;
63807;SDS011;49961;43.970;22.868;2022-10-31T04:52:00;16.00;;;7.53;;
63807;SDS011;49961;43.970;22.868;2022-10-31T04:53:01;23.70;;;7.90;;
63807;SDS011;49961;43.970;22.868;2022-10-31T04:54:02;18.33;;;7.10;;
63807;SDS011;49961;43.970;22.868;2022-10-31T04:55:02;14.07;;;6.80;;
63807;SDS011;49961;43.970;22.868;2022-10-31T04:56:03;19.93;;;7.47;;
63807;SDS011;49961;43.970;22.868;2022-10-31T04:57:03;25.93;;;8.63;;
63807;SDS011;49961;43.970;22.868;2022-10-31T04:58:04;17.70;;;7.23;;
63807;SDS011;49961;43.970;22.868;2022-10-31T04:59:04;15.00;;;6.93;;
63807;SDS011;49961;43.970;22.868;2022-10-31T05:00:05;20.20;;;6.97;;
63807;SDS011;49961;43.970;22.868;2022-10-31T05:01:06;22.00;;;6.80;;
63807;SDS011;49961;43.970;22.868;2022-10-31T05:02:06;16.57;;;6.17;;
63807;SDS011;49961;43.970;22.868;2022-10-31T05:03:06;15.03;;;6.77;;
63807;SDS011;49961;43.970;22.868;2022-10-31T05:04:07;14.70;;;6.63;;
63807;SDS011;49961;43.970;22.868;2022-10-31T05:05:07;12.97;;;6.10;;
63807;SDS011;49961;43.970;22.868;2022-10-31T05:06:08;14.93;;;6.80;;
63807;SDS011;49961;43.970;22.868;2022-10-31T05:07:08;12.07;;;6.30;;
63807;SDS011;49961;43.970;22.868;2022-10-31T05:08:09;15.80;;;6.43;;
63807;SDS011;49961;43.970;22.868;2022-10-31T05:09:09;13.53;;;6.80;;
63807;SDS011;49961;43.970;22.868;2022-10-31T05:10:10;11.83;;;5.77;;
63807;SDS011;49961;43.970;22.868;2022-10-31T05:11:12;12.93;;;6.43;;
63807;SDS011;49961;43.970;22.868;2022-10-31T05:12:13;11.77;;;6.03;;
63807;SDS011;49961;43.970;22.868;2022-10-31T05:13:13;14.27;;;6.50;;
63807;SDS011;49961;43.970;22.868;2022-10-31T05:14:15;13.53;;;6.87;;
63807;SDS011;49961;43.970;22.868;2022-10-31T05:15:16;14.00;;;6.13;;
63807;SDS011;49961;43.970;22.868;2022-10-31T05:16:17;15.23;;;6.23;;
63807;SDS011;49961;43.970;22.868;2022-10-31T05:17:17;20.80;;;7.60;;
63807;SDS011;49961;43.970;22.868;2022-10-31T05:18:18;8.43;;;5.17;;
63807;SDS011;49961;43.970;22.868;2022-10-31T05:19:18;14.90;;;5.40;;
63807;SDS011;49961;43.970;22.868;2022-10-31T05:20:20;13.27;;;5.50;;
63807;SDS011;49961;43.970;22.868;2022-10-31T05:21:21;12.93;;;5.57;;
63807;SDS011;49961;43.970;22.868;2022-10-31T05:22:22;12.07;;;5.63;;
63807;SDS011;49961;43.970;22.868;2022-10-31T05:23:22;12.13;;;5.30;;
63807;SDS011;49961;43.970;22.868;2022-10-31T05:24:22;21.23;;;7.67;;
63807;SDS011;49961;43.970;22.868;2022-10-31T05:25:24;15.60;;;6.20;;
63807;SDS011;49961;43.970;22.868;2022-10-31T05:26:26;8.50;;;5.30;;
63807;SDS011;49961;43.970;22.868;2022-10-31T05:27:26;13.37;;;6.50;;
63807;SDS011;49961;43.970;22.868;2022-10-31T05:28:27;8.73;;;5.93;;
63807;SDS011;49961;43.970;22.868;2022-10-31T05:29:27;11.03;;;6.13;;
63807;SDS011;49961;43.970;22.868;2022-10-31T05:30:29;14.13;;;6.53;;
63807;SDS011;49961;43.970;22.868;2022-10-31T05:31:31;18.80;;;7.10;;
63807;SDS011;49961;43.970;22.868;2022-10-31T05:32:36;15.73;;;6.40;;
63807;SDS011;49961;43.970;22.868;2022-10-31T05:33:40;11.27;;;5.77;;
63807;SDS011;49961;43.970;22.868;2022-10-31T05:34:40;15.43;;;6.97;;
63807;SDS011;49961;43.970;22.868;2022-10-31T05:35:41;14.43;;;6.27;;
63807;SDS011;49961;43.970;22.868;2022-10-31T05:36:41;15.03;;;6.00;;
63807;SDS011;49961;43.970;22.868;2022-10-31T05:37:41;17.03;;;6.60;;
63807;SDS011;49961;43.970;22.868;2022-10-31T05:38:43;14.23;;;6.57;;
63807;SDS011;49961;43.970;22.868;2022-10-31T05:39:43;11.17;;;6.17;;
63807;SDS011;49961;43.970;22.868;2022-10-31T05:40:43;12.30;;;6.27;;
63807;SDS011;49961;43.970;22.868;2022-10-31T05:41:44;15.53;;;6.10;;
63807;SDS011;49961;43.970;22.868;2022-10-31T05:42:44;11.83;;;6.17;;
63807;SDS011;49961;43.970;22.868;2022-10-31T05:43:45;12.40;;;6.50;;
63807;SDS011;49961;43.970;22.868;2022-10-31T05:44:46;12.07;;;6.23;;
63807;SDS011;49961;43.970;22.868;2022-10-31T05:45:46;14.63;;;6.10;;
63807;SDS011;49961;43.970;22.868;2022-10-31T05:46:46;11.77;;;6.03;;
63807;SDS011;49961;43.970;22.868;2022-10-31T05:47:51;11.40;;;6.67;;
63807;SDS011;49961;43.970;22.868;2022-10-31T05:48:56;12.73;;;6.53;;
63807;SDS011;49961;43.970;22.868;2022-10-31T05:49:56;10.33;;;6.47;;
63807;SDS011;49961;43.970;22.868;2022-10-31T05:50:58;10.70;;;6.67;;
63807;SDS011;49961;43.970;22.868;2022-10-31T05:51:58;9.60;;;6.40;;
63807;SDS011;49961;43.970;22.868;2022-10-31T05:53:00;12.97;;;6.57;;
63807;SDS011;49961;43.970;22.868;2022-10-31T05:54:02;10.50;;;6.17;;
63807;SDS011;49961;43.970;22.868;2022-10-31T05:55:03;10.67;;;6.87;;
63807;SDS011;49961;43.970;22.868;2022-10-31T05:56:04;8.60;;;6.57;;
63807;SDS011;49961;43.970;22.868;2022-10-31T05:57:04;9.53;;;6.20;;
63807;SDS011;49961;43.970;22.868;2022-10-31T05:58:05;13.33;;;6.50;;
63807;SDS011;49961;43.970;22.868;2022-10-31T05:59:05;9.90;;;6.43;;
63807;SDS011;49961;43.970;22.868;2022-10-31T06:00:06;9.73;;;6.00;;
63807;SDS011;49961;43.970;22.868;2022-10-31T06:01:07;11.63;;;6.37;;
63807;SDS011;49961;43.970;22.868;2022-10-31T06:02:07;9.93;;;5.90;;
63807;SDS011;49961;43.970;22.868;2022-10-31T06:03:08;12.27;;;6.53;;
63807;SDS011;49961;43.970;22.868;2022-10-31T06:04:09;13.20;;;6.50;;
63807;SDS011;49961;43.970;22.868;2022-10-31T06:05:09;10.17;;;5.90;;
63807;SDS011;49961;43.970;22.868;2022-10-31T06:06:10;8.80;;;6.13;;
63807;SDS011;49961;43.970;22.868;2022-10-31T06:07:10;10.87;;;5.63;;
63807;SDS011;49961;43.970;22.868;2022-10-31T06:08:11;9.27;;;5.97;;
63807;SDS011;49961;43.970;22.868;2022-10-31T06:09:11;12.83;;;6.47;;
63807;SDS011;49961;43.970;22.868;2022-10-31T06:10:12;10.13;;;6.47;;
63807;SDS011;49961;43.970;22.868;2022-10-31T06:11:12;13.73;;;6.33;;
63807;SDS011;49961;43.970;22.868;2022-10-31T06:12:12;8.00;;;5.50;;
63807;SDS011;49961;43.970;22.868;2022-10-31T06:13:13;9.43;;;5.97;;
63807;SDS011;49961;43.970;22.868;2022-10-31T06:14:13;9.53;;;5.67;;
63807;SDS011;49961;43.970;22.868;2022-10-31T06:15:14;7.87;;;5.17;;
63807;SDS011;49961;43.970;22.868;2022-10-31T06:16:14;8.23;;;5.50;;
63807;SDS011;49961;43.970;22.868;2022-10-31T06:17:15;8.60;;;5.80;;
63807;SDS011;49961;43.970;22.868;2022-10-31T06:18:15;19.17;;;6.63;;
63807;SDS011;49961;43.970;22.868;2022-10-31T06:19:16;12.60;;;6.97;;
63807;SDS011;49961;43.970;22.868;2022-10-31T06:20:16;8.67;;;5.47;;
63807;SDS011;49961;43.970;22.868;2022-10-31T06:21:17;11.57;;;5.77;;
63807;SDS011;49961;43.970;22.868;2022-10-31T06:22:17;11.50;;;6.00;;
63807;SDS011;49961;43.970;22.868;2022-10-31T06:23:18;11.13;;;6.00;;
63807;SDS011;49961;43.970;22.868;2022-10-31T06:24:18;10.80;;;5.90;;
63807;SDS011;49961;43.970;22.868;2022-10-31T06:25:19;9.40;;;5.73;;
63807;SDS011;49961;43.970;22.868;2022-10-31T06:26:19;10.93;;;5.70;;
63807;SDS011;49961;43.970;22.868;2022-10-31T06:27:20;11.03;;;5.50;;
63807;SDS011;49961;43.970;22.868;2022-10-31T06:28:20;11.60;;;5.73;;
63807;SDS011;49961;43.970;22.868;2022-10-31T06:29:21;9.13;;;5.23;;
63807;SDS011;49961;43.970;22.868;2022-10-31T06:30:21;7.63;;;5.40;;
63807;SDS011;49961;43.970;22.868;2022-10-31T06:31:22;12.20;;;5.67;;
63807;SDS011;49961;43.970;22.868;2022-10-31T06:32:22;6.77;;;4.73;;
63807;SDS011;49961;43.970;22.868;2022-10-31T06:33:23;10.73;;;5.00;;
63807;SDS011;49961;43.970;22.868;2022-10-31T06:34:23;9.60;;;5.37;;
63807;SDS011;49961;43.970;22.868;2022-10-31T06:35:24;11.90;;;5.10;;
63807;SDS011;49961;43.970;22.868;2022-10-31T06:36:24;11.33;;;5.17;;
63807;SDS011;49961;43.970;22.868;2022-10-31T06:37:24;7.87;;;5.37;;
63807;SDS011;49961;43.970;22.868;2022-10-31T06:38:25;10.53;;;5.10;;
63807;SDS011;49961;43.970;22.868;2022-10-31T06:39:26;12.67;;;5.43;;
63807;SDS011;49961;43.970;22.868;2022-10-31T06:40:27;13.07;;;5.00;;
63807;SDS011;49961;43.970;22.868;2022-10-31T06:41:27;12.07;;;5.17;;